CheckWX is a tool to help pilots better visualize weather data.  It is not intended as a substitute for an official pre-flight weather briefing.

12:03:09 UTC

KMDW METAR
Chicago Midway International Airport
Chicago, Illinois, USA
Current

10 mins ago

KMDW 251153Z 05017G23KT 10SM FEW015 FEW080 01/M04 A3021 RMK AO2 PK WND 04033/1139 SLP238 70011 T00111039 10022 20011 53023
Observed
Mar-25 @ 11:53 UTC
Wind
  • 050° at 17 KTS
  • Gusting to 23 KTS
Visibility
10 SM
Flight Rules
VFR
Cloud Levels
  • Few at 1,500' AGL
  • Few at 8,000' AGL
Temperature
C / 34°F
Dewpoint
-4°C / 25°F
Humidity
70%
Altimeter
30.21" Hg
Pressure
1023.8 hPa
Previous

1 hour ago

KMDW 251053Z 04018G30KT 10SM FEW013 SCT080 02/M03 A3017 RMK AO2 PK WND 03031/1011 SLP225 T00171028
Observed
Mar-25 @ 10:53 UTC
Wind
  • 040° at 18 KTS
  • Gusting to 30 KTS
Visibility
10 SM
Flight Rules
VFR
Cloud Levels
  • Few at 1,300' AGL
  • Scattered at 8,000' AGL
Temperature
C / 36°F
Dewpoint
-3°C / 27°F
Humidity
70%
Altimeter
30.17" Hg
Pressure
1022.5 hPa
Previous

2 hours ago

KMDW 251023Z 03018G29KT 10SM SCT013 OVC080 02/M02 A3016 RMK AO2 PK WND 03031/1011 T00221022
Observed
Mar-25 @ 10:23 UTC
Wind
  • 030° at 18 KTS
  • Gusting to 29 KTS
Visibility
10 SM
Flight Rules
VFR
Cloud Levels
  • Scattered at 1,300' AGL
  • Overcast at 8,000' AGL
Temperature
C / 36°F
Dewpoint
-2°C / 28°F
Humidity
75%
Altimeter
30.16" Hg
Pressure
1021.32 hPa